Airport View

Enter AWOS ICAO identifier for current METAR.

ex. KFNL

PAKT 140753Z AUTO 17003KT 10SM BKN019 OVC035 03/02 A3004

14 Dec 2019 08:29

Frequency: 134.45

Phone: 907-247-8801

Other Area AWOS: PAMM - PANT - PAHY - PAKW

TAF PAKT 140545Z 1406/1506 16005KT P6SM -SHRA FEW009 OVC018 TEMPO 1406/1410 VRB04KT 6SM -SHRA BR BKN009 OVC018 FM141200 VRB04KT P6SM VCFG FEW005 BKN025 TEMPO 1412/1415 00000KT 5SM BCFG BKN005 FM142100 14004KT P6SM SCT025 BKN035 AMD LTD TO CLD VIS AND WIND 1406/1415